Time;durP1;ratioP1;P1;durP2;ratioP2;P2;SDS_P1;SDS_P2;PMS_P1;PMS_P2;Temp;Humidity;BMP_temperature;BMP_pressure;BME280_temperature;BME280_humidity;BME280_pressure;Samples;Min_cycle;Max_cycle;Signal;HPM_P1;HPM_P2
2021/10/20 00:01:11;;;;;;;9.63;5.82;;;9.70;99.90;;;;;;5049847;28;20028;-71
2021/10/20 00:03:36;;;;;;;11.73;6.18;;;9.70;99.90;;;;;;5051165;28;20532;-71
2021/10/20 00:06:02;;;;;;;10.57;5.95;;;9.70;99.90;;;;;;5050146;28;20086;-70
2021/10/20 00:08:27;;;;;;;9.60;5.93;;;9.80;99.90;;;;;;5050747;28;20103;-71
2021/10/20 00:10:53;;;;;;;8.10;5.25;;;9.70;99.90;;;;;;5050765;28;20087;-71
2021/10/20 00:13:19;;;;;;;9.18;5.47;;;9.70;99.90;;;;;;5049925;28;20029;-72
2021/10/20 00:15:45;;;;;;;8.75;5.60;;;9.60;99.90;;;;;;5051213;28;20036;-71
2021/10/20 00:18:11;;;;;;;7.32;5.28;;;9.60;99.90;;;;;;5049919;28;20103;-72
2021/10/20 00:20:38;;;;;;;8.00;5.78;;;9.50;99.90;;;;;;5050664;28;20120;-70
2021/10/20 00:23:04;;;;;;;7.03;5.65;;;9.50;99.90;;;;;;5047082;28;20028;-70
2021/10/20 00:25:30;;;;;;;7.75;5.10;;;9.40;99.90;;;;;;5050711;28;20029;-70
2021/10/20 00:27:57;;;;;;;6.63;5.05;;;9.50;99.90;;;;;;5050114;28;20037;-69
2021/10/20 00:30:23;;;;;;;8.68;5.70;;;9.40;99.90;;;;;;5050279;28;20082;-70
2021/10/20 00:32:49;;;;;;;7.88;5.65;;;9.30;99.90;;;;;;5050493;28;20071;-70
2021/10/20 00:35:15;;;;;;;9.65;5.78;;;9.30;99.90;;;;;;5049783;28;20064;-70
2021/10/20 00:37:41;;;;;;;9.25;6.10;;;9.20;99.90;;;;;;5050189;28;20029;-70
2021/10/20 00:40:08;;;;;;;11.57;7.13;;;9.20;99.90;;;;;;5049450;28;20511;-70
2021/10/20 00:42:34;;;;;;;9.45;5.72;;;9.20;99.90;;;;;;5051032;28;20129;-71
2021/10/20 00:45:01;;;;;;;8.07;6.15;;;9.20;99.90;;;;;;5050997;28;20086;-69
2021/10/20 00:47:28;;;;;;;9.60;6.03;;;9.10;99.90;;;;;;5051333;28;20060;-72
2021/10/20 00:49:54;;;;;;;6.57;5.40;;;9.10;99.90;;;;;;5051270;28;20039;-70
2021/10/20 00:52:22;;;;;;;9.20;5.97;;;9.20;99.90;;;;;;5050867;28;20202;-71
2021/10/20 00:54:50;;;;;;;7.78;5.88;;;9.20;99.90;;;;;;5051728;28;20029;-71
2021/10/20 00:57:16;;;;;;;8.38;5.45;;;9.10;99.90;;;;;;5050140;28;20053;-71
2021/10/20 00:59:43;;;;;;;8.88;6.38;;;9.00;99.90;;;;;;5051281;28;20075;-70
2021/10/20 01:02:09;;;;;;;10.90;6.57;;;9.00;99.90;;;;;;5050493;28;20050;-70
2021/10/20 01:04:36;;;;;;;9.77;5.95;;;8.90;99.90;;;;;;5051569;28;20374;-71
2021/10/20 01:07:03;;;;;;;8.32;6.50;;;8.90;99.90;;;;;;5050197;28;20113;-69
2021/10/20 01:09:28;;;;;;;8.02;5.88;;;8.80;99.90;;;;;;5051776;28;20037;-70
2021/10/20 01:11:54;;;;;;;7.70;5.60;;;8.80;99.90;;;;;;5051128;28;20090;-70
2021/10/20 01:14:21;;;;;;;9.48;6.25;;;8.70;99.90;;;;;;5054698;28;20041;-71
2021/10/20 01:16:48;;;;;;;8.07;5.95;;;8.70;99.90;;;;;;5055050;28;20025;-70
2021/10/20 01:19:15;;;;;;;10.48;6.35;;;8.70;99.90;;;;;;5055197;28;20053;-70
2021/10/20 01:21:40;;;;;;;8.65;6.05;;;8.60;99.90;;;;;;5035768;28;20032;-70
2021/10/20 01:24:06;;;;;;;9.57;5.93;;;8.60;99.90;;;;;;5053748;28;20029;-70
2021/10/20 01:26:32;;;;;;;8.60;6.22;;;8.50;99.90;;;;;;5055483;28;20029;-71
2021/10/20 01:28:58;;;;;;;9.10;5.93;;;8.50;99.90;;;;;;5055170;28;20397;-69
2021/10/20 01:31:24;;;;;;;8.52;6.13;;;8.50;99.90;;;;;;5054515;28;20544;-71
2021/10/20 01:33:49;;;;;;;10.20;6.07;;;8.40;99.90;;;;;;5055002;28;20108;-71
2021/10/20 01:36:15;;;;;;;9.88;6.50;;;8.40;99.90;;;;;;5054253;28;20082;-70
2021/10/20 01:38:41;;;;;;;8.43;5.40;;;8.40;99.90;;;;;;5054980;28;20386;-70
2021/10/20 01:41:07;;;;;;;12.88;6.45;;;8.30;99.90;;;;;;5053687;28;20025;-70
2021/10/20 01:43:41;;;;;;;10.27;6.70;;;8.30;99.90;;;;;;5053570;28;20453;-70
2021/10/20 01:46:08;;;;;;;10.32;7.20;;;8.30;99.90;;;;;;5054242;28;20041;-70
2021/10/20 01:48:34;;;;;;;8.15;5.60;;;8.30;99.90;;;;;;5054770;28;20037;-70
2021/10/20 01:51:00;;;;;;;7.35;6.20;;;8.30;99.90;;;;;;5054762;28;20029;-69
2021/10/20 01:53:25;;;;;;;11.70;6.97;;;8.20;99.90;;;;;;5054526;28;20025;-71
2021/10/20 01:55:51;;;;;;;9.02;6.45;;;8.20;99.90;;;;;;5055309;28;20025;-70
2021/10/20 01:58:18;;;;;;;9.80;6.35;;;8.10;99.90;;;;;;5052699;28;20032;-70
2021/10/20 02:00:43;;;;;;;9.98;6.82;;;8.10;99.90;;;;;;5053409;28;20075;-72
2021/10/20 02:03:09;;;;;;;10.38;6.90;;;8.10;99.90;;;;;;5052734;28;20021;-71
2021/10/20 02:05:35;;;;;;;11.23;6.95;;;8.00;99.90;;;;;;5053611;28;20064;-71
2021/10/20 02:08:02;;;;;;;10.75;7.22;;;8.00;99.90;;;;;;5053228;28;20025;-70
2021/10/20 02:10:28;;;;;;;9.63;6.63;;;8.10;99.90;;;;;;5053064;28;20100;-71
2021/10/20 02:12:53;;;;;;;17.02;7.07;;;8.10;99.90;;;;;;5053076;28;20067;-70
2021/10/20 02:15:19;;;;;;;8.77;6.32;;;8.10;99.90;;;;;;5056091;28;20111;-70
2021/10/20 02:17:44;;;;;;;12.60;6.32;;;8.20;99.90;;;;;;5055110;28;20025;-71
2021/10/20 02:20:13;;;;;;;12.38;6.32;;;8.30;99.90;;;;;;5052669;28;20103;-70
2021/10/20 02:22:40;;;;;;;9.48;5.68;;;8.50;99.90;;;;;;5053407;28;20052;-71
2021/10/20 02:25:07;;;;;;;8.65;5.60;;;8.50;99.90;;;;;;5051267;28;20036;-71
2021/10/20 02:27:33;;;;;;;7.35;4.38;;;8.60;99.90;;;;;;5053219;28;20032;-70
2021/10/20 02:29:59;;;;;;;6.85;4.97;;;8.70;99.90;;;;;;5052000;28;20096;-70
2021/10/20 02:32:25;;;;;;;9.77;5.22;;;8.90;99.90;;;;;;5052691;28;20025;-70
2021/10/20 02:34:51;;;;;;;5.75;4.72;;;9.10;99.90;;;;;;5053186;28;20032;-70
2021/10/20 02:37:16;;;;;;;10.45;5.30;;;9.10;99.90;;;;;;5052325;28;20032;-70
2021/10/20 02:39:42;;;;;;;7.63;4.88;;;9.20;99.90;;;;;;5052804;28;20031;-70
2021/10/20 02:42:08;;;;;;;6.43;4.47;;;9.20;99.90;;;;;;5051696;28;20050;-71
2021/10/20 02:44:33;;;;;;;5.70;4.60;;;9.20;99.90;;;;;;5052582;28;20036;-70
2021/10/20 02:46:59;;;;;;;9.18;5.38;;;9.20;99.90;;;;;;5052775;28;20029;-69
2021/10/20 02:49:25;;;;;;;8.57;4.97;;;9.20;99.90;;;;;;5051846;28;20021;-70
2021/10/20 02:51:50;;;;;;;9.07;5.03;;;9.30;99.90;;;;;;5052526;28;20025;-72
2021/10/20 02:54:17;;;;;;;7.30;4.93;;;9.30;99.90;;;;;;5051902;28;20029;-72
2021/10/20 02:56:43;;;;;;;6.90;4.78;;;9.40;99.90;;;;;;5051224;28;20466;-70
2021/10/20 02:59:09;;;;;;;9.10;5.50;;;9.30;99.90;;;;;;5052045;28;20056;-71
2021/10/20 03:01:34;;;;;;;7.40;5.13;;;9.20;99.90;;;;;;5053191;28;20099;-71
2021/10/20 03:04:00;;;;;;;10.95;5.32;;;9.20;99.90;;;;;;5053267;28;20028;-69
2021/10/20 03:06:25;;;;;;;10.25;5.15;;;9.10;99.90;;;;;;5052618;28;20051;-71
2021/10/20 03:08:51;;;;;;;7.72;4.90;;;9.10;99.90;;;;;;5053236;28;20489;-71
2021/10/20 03:11:17;;;;;;;7.80;4.57;;;9.10;99.90;;;;;;5052461;28;20442;-71
2021/10/20 03:13:43;;;;;;;7.03;4.78;;;9.00;99.90;;;;;;5052978;28;20032;-71
2021/10/20 03:16:08;;;;;;;5.22;4.50;;;9.00;99.90;;;;;;5052313;28;20036;-71
2021/10/20 03:18:34;;;;;;;7.43;4.55;;;9.00;99.90;;;;;;5053213;28;20189;-72
2021/10/20 03:21:00;;;;;;;7.18;4.75;;;9.10;99.90;;;;;;5052711;28;20029;-69
2021/10/20 03:23:26;;;;;;;6.50;4.45;;;9.10;99.90;;;;;;5052622;28;20031;-71
2021/10/20 03:25:51;;;;;;;8.73;4.35;;;9.20;99.90;;;;;;5053094;28;20060;-71
2021/10/20 03:28:17;;;;;;;9.70;5.45;;;9.10;99.90;;;;;;5052112;28;20458;-71
2021/10/20 03:30:43;;;;;;;6.82;3.80;;;9.30;99.90;;;;;;5052865;28;20027;-71
2021/10/20 03:33:08;;;;;;;4.65;3.70;;;9.30;99.90;;;;;;5051870;28;20397;-70
2021/10/20 03:35:34;;;;;;;6.85;4.82;;;9.40;99.90;;;;;;5052074;28;20112;-70
2021/10/20 03:37:59;;;;;;;10.15;4.93;;;9.40;99.90;;;;;;5052771;28;20021;-71
2021/10/20 03:40:25;;;;;;;10.23;5.05;;;9.40;99.90;;;;;;5051473;28;20056;-71
2021/10/20 03:42:51;;;;;;;7.95;4.55;;;9.40;99.90;;;;;;5052520;28;20068;-71
2021/10/20 03:45:16;;;;;;;7.45;5.75;;;9.30;99.90;;;;;;5052124;28;20041;-71
2021/10/20 03:47:43;;;;;;;10.77;5.05;;;9.30;99.90;;;;;;5052465;28;20080;-71
2021/10/20 03:50:09;;;;;;;7.25;4.93;;;9.30;99.90;;;;;;5051391;28;20033;-70
2021/10/20 03:52:35;;;;;;;9.05;5.20;;;9.20;99.90;;;;;;5052419;28;20397;-71
2021/10/20 03:55:03;;;;;;;5.60;4.55;;;9.20;99.90;;;;;;5052439;28;20029;-70
2021/10/20 03:57:34;;;;;;;5.38;4.18;;;9.20;99.90;;;;;;5051971;28;20036;-71
2021/10/20 03:59:59;;;;;;;5.22;3.97;;;9.20;99.90;;;;;;5051987;28;20493;-71
2021/10/20 04:02:25;;;;;;;6.47;4.38;;;9.10;99.90;;;;;;5051259;28;20029;-71
2021/10/20 04:04:50;;;;;;;6.70;4.60;;;9.10;99.90;;;;;;5052035;28;20079;-71
2021/10/20 04:07:16;;;;;;;6.72;4.70;;;9.00;99.90;;;;;;5051454;28;20107;-70
2021/10/20 04:09:42;;;;;;;6.30;4.45;;;9.00;99.90;;;;;;5051959;28;20025;-70
2021/10/20 04:12:07;;;;;;;6.28;4.75;;;8.90;99.90;;;;;;5051060;28;20104;-70
2021/10/20 04:14:33;;;;;;;6.30;4.95;;;8.80;99.90;;;;;;5051764;28;20082;-71
2021/10/20 04:16:58;;;;;;;8.57;5.00;;;8.80;99.90;;;;;;5052215;28;20036;-70
2021/10/20 04:19:24;;;;;;;6.93;5.10;;;8.70;99.90;;;;;;5051293;28;20037;-70
2021/10/20 04:21:50;;;;;;;7.45;5.28;;;8.70;99.90;;;;;;5052578;28;20496;-71
2021/10/20 04:24:15;;;;;;;6.85;5.28;;;8.60;99.90;;;;;;5051329;28;20428;-70
2021/10/20 04:26:41;;;;;;;10.20;5.47;;;8.50;99.90;;;;;;5051643;28;20064;-70
2021/10/20 04:29:06;;;;;;;9.38;5.45;;;8.40;99.90;;;;;;5051146;28;20103;-69
2021/10/20 04:31:32;;;;;;;9.25;5.32;;;8.40;99.90;;;;;;5051543;28;20021;-71
2021/10/20 04:33:58;;;;;;;8.95;6.07;;;8.40;99.90;;;;;;5051572;28;20036;-71
2021/10/20 04:36:23;;;;;;;7.75;5.95;;;8.40;99.90;;;;;;5050750;28;20060;-71
2021/10/20 04:38:49;;;;;;;8.65;5.88;;;8.30;99.90;;;;;;5051969;28;20462;-70
2021/10/20 04:41:14;;;;;;;8.32;6.65;;;8.30;99.90;;;;;;5050459;28;20029;-70
2021/10/20 04:43:40;;;;;;;13.52;6.53;;;8.30;99.90;;;;;;5051395;28;20068;-70
2021/10/20 04:46:06;;;;;;;8.85;6.00;;;8.40;99.90;;;;;;5051059;28;20090;-69
2021/10/20 04:48:32;;;;;;;8.65;5.40;;;8.40;99.90;;;;;;5050478;28;20086;-70
2021/10/20 04:50:57;;;;;;;8.10;5.68;;;8.40;99.90;;;;;;5051866;28;20163;-72
2021/10/20 04:53:23;;;;;;;8.77;5.75;;;8.40;99.90;;;;;;5050660;28;20120;-70
2021/10/20 04:55:49;;;;;;;9.70;5.20;;;8.40;99.90;;;;;;5051749;28;20036;-72
2021/10/20 04:58:15;;;;;;;6.65;4.70;;;8.50;99.90;;;;;;5051135;28;20029;-72
2021/10/20 05:00:41;;;;;;;6.78;4.32;;;8.50;99.90;;;;;;5050935;28;20021;-71
2021/10/20 05:03:07;;;;;;;8.07;4.35;;;8.60;99.90;;;;;;5051005;28;20375;-69
2021/10/20 05:05:32;;;;;;;5.28;3.17;;;8.60;99.90;;;;;;5051181;28;20033;-70
2021/10/20 05:07:59;;;;;;;7.00;3.70;;;8.60;99.90;;;;;;5051496;28;20037;-71
2021/10/20 05:10:26;;;;;;;8.82;4.53;;;8.60;99.90;;;;;;5050055;28;20605;-71
2021/10/20 05:12:56;;;;;;;7.50;4.53;;;8.60;99.90;;;;;;5051039;28;20538;-71
2021/10/20 05:15:22;;;;;;;7.90;4.25;;;8.60;99.90;;;;;;5050396;28;20033;-71
2021/10/20 05:17:48;;;;;;;5.03;3.72;;;8.70;99.90;;;;;;5050854;28;20044;-72
2021/10/20 05:20:15;;;;;;;7.18;4.25;;;8.70;99.90;;;;;;5050291;28;20100;-70
2021/10/20 05:22:41;;;;;;;8.15;3.63;;;8.80;99.90;;;;;;5051058;28;20055;-70
2021/10/20 05:25:09;;;;;;;7.90;4.97;;;8.80;99.90;;;;;;5050266;28;20108;-70
2021/10/20 05:27:36;;;;;;;8.48;4.65;;;8.80;99.90;;;;;;5050018;28;20033;-72
2021/10/20 05:30:03;;;;;;;8.48;4.85;;;8.80;99.90;;;;;;5051094;28;20540;-71
2021/10/20 05:32:29;;;;;;;12.52;6.20;;;8.70;99.90;;;;;;5048777;28;20041;-72
2021/10/20 05:34:55;;;;;;;10.35;6.05;;;8.70;99.90;;;;;;5051115;28;20036;-70
2021/10/20 05:37:22;;;;;;;10.18;6.38;;;8.50;99.90;;;;;;5050100;28;20040;-70
2021/10/20 05:39:48;;;;;;;9.45;6.38;;;8.50;99.90;;;;;;5050446;28;20029;-70
2021/10/20 05:42:17;;;;;;;9.32;5.57;;;8.40;99.90;;;;;;5049935;28;20092;-70
2021/10/20 05:44:43;;;;;;;13.25;5.82;;;8.40;99.90;;;;;;5051004;28;20033;-71
2021/10/20 05:47:09;;;;;;;8.55;5.70;;;8.40;99.90;;;;;;5050428;28;20040;-70
2021/10/20 05:49:35;;;;;;;10.35;6.25;;;8.30;99.90;;;;;;5050958;28;20060;-71
2021/10/20 05:52:01;;;;;;;10.40;5.95;;;8.40;99.90;;;;;;5050797;28;20047;-71
2021/10/20 05:54:26;;;;;;;8.52;4.97;;;8.40;99.90;;;;;;5049714;28;20584;-70
2021/10/20 05:56:52;;;;;;;7.35;4.75;;;8.50;99.90;;;;;;5050810;28;20304;-71
2021/10/20 05:59:24;;;;;;;5.93;2.90;;;8.50;99.90;;;;;;5052215;28;20029;-70
2021/10/20 06:01:50;;;;;;;6.15;3.75;;;8.60;99.90;;;;;;5054877;28;20390;-67
2021/10/20 06:04:19;;;;;;;11.93;4.60;;;8.90;99.90;;;;;;5052944;28;20021;-67
2021/10/20 06:06:46;;;;;;;9.05;3.65;;;9.10;99.90;;;;;;5054219;28;20494;-67
2021/10/20 06:09:11;;;;;;;8.63;4.20;;;9.20;99.90;;;;;;5034874;28;20044;-65
2021/10/20 06:11:38;;;;;;;10.35;5.22;;;9.30;99.90;;;;;;5044622;28;20489;-65
2021/10/20 06:14:04;;;;;;;8.85;5.03;;;9.40;99.90;;;;;;5055081;28;20032;-65
2021/10/20 06:16:32;;;;;;;8.73;3.97;;;9.40;99.90;;;;;;5053447;28;20040;-65
2021/10/20 06:18:58;;;;;;;6.63;4.18;;;9.50;99.90;;;;;;5054275;28;20030;-65
2021/10/20 06:21:23;;;;;;;7.97;4.72;;;9.50;99.90;;;;;;5052855;28;20088;-64
2021/10/20 06:23:51;;;;;;;7.07;4.55;;;9.50;99.90;;;;;;5054045;28;20106;-65
2021/10/20 06:26:16;;;;;;;6.95;4.57;;;9.60;99.90;;;;;;5052878;28;20418;-65
2021/10/20 06:28:42;;;;;;;10.27;5.45;;;9.50;99.90;;;;;;5053831;28;20040;-65
2021/10/20 06:31:08;;;;;;;5.78;4.03;;;9.60;99.90;;;;;;5053547;28;20390;-65
2021/10/20 06:33:33;;;;;;;9.25;4.70;;;9.70;99.90;;;;;;5053601;28;20028;-65
2021/10/20 06:36:01;;;;;;;11.48;4.80;;;9.70;99.90;;;;;;5053806;28;20043;-65
2021/10/20 06:38:27;;;;;;;8.05;5.20;;;9.80;99.90;;;;;;5052821;28;20398;-65
2021/10/20 06:40:53;;;;;;;10.18;5.00;;;9.70;99.90;;;;;;5066787;28;20116;-67
2021/10/20 06:43:18;;;;;;;6.60;4.60;;;9.60;99.90;;;;;;5054722;28;20128;-67
2021/10/20 06:45:44;;;;;;;8.93;5.95;;;9.50;99.90;;;;;;5053653;28;20467;-65
2021/10/20 06:48:09;;;;;;;9.27;5.60;;;9.40;99.90;;;;;;5053317;28;20450;-65
2021/10/20 06:50:35;;;;;;;13.77;5.70;;;9.40;99.90;;;;;;5053101;28;20028;-64
2021/10/20 06:53:01;;;;;;;8.18;4.90;;;9.30;99.90;;;;;;5053655;28;20100;-64
2021/10/20 06:55:27;;;;;;;6.82;4.78;;;9.30;99.90;;;;;;5053128;28;20130;-64
2021/10/20 06:57:53;;;;;;;7.22;4.65;;;9.40;99.90;;;;;;5053623;28;20052;-67
2021/10/20 07:00:20;;;;;;;9.43;5.53;;;9.40;99.90;;;;;;5051384;28;20037;-67
2021/10/20 07:02:45;;;;;;;8.07;5.47;;;9.50;99.90;;;;;;5052119;28;20021;-67
2021/10/20 07:05:11;;;;;;;6.45;4.60;;;9.70;99.90;;;;;;5052772;28;20032;-64
2021/10/20 07:07:37;;;;;;;8.75;4.82;;;9.80;99.90;;;;;;5051251;28;20519;-64
2021/10/20 07:10:04;;;;;;;7.53;4.72;;;9.90;99.90;;;;;;5050779;28;20025;-64
2021/10/20 07:12:31;;;;;;;8.90;5.30;;;10.00;99.90;;;;;;5041285;28;20203;-64
2021/10/20 07:14:59;;;;;;;12.55;6.60;;;10.10;99.90;;;;;;5033947;28;20516;-64
2021/10/20 07:17:25;;;;;;;9.23;6.00;;;10.30;99.90;;;;;;5034062;28;20462;-64
2021/10/20 07:19:51;;;;;;;8.52;5.28;;;10.50;99.90;;;;;;5038783;28;20074;-64
2021/10/20 07:22:17;;;;;;;10.77;5.88;;;10.60;99.90;;;;;;5044510;28;20049;-64
2021/10/20 07:24:43;;;;;;;7.20;5.47;;;10.70;99.90;;;;;;5033833;28;20105;-64
2021/10/20 07:27:08;;;;;;;8.40;5.32;;;10.80;99.90;;;;;;5052576;28;20025;-64
2021/10/20 07:29:34;;;;;;;10.90;6.22;;;10.90;99.90;;;;;;5048533;28;20033;-64
2021/10/20 07:32:00;;;;;;;9.68;5.22;;;11.10;99.90;;;;;;5033135;28;20032;-65
2021/10/20 07:34:26;;;;;;;6.65;4.97;;;11.20;99.90;;;;;;5032105;28;20071;-64
2021/10/20 07:36:52;;;;;;;8.88;4.22;;;11.40;99.90;;;;;;5051603;28;20033;-66
2021/10/20 07:39:18;;;;;;;9.23;4.65;;;11.50;99.90;;;;;;5052105;28;20029;-64
2021/10/20 07:41:44;;;;;;;5.43;4.72;;;11.70;99.90;;;;;;5071402;28;20107;-64
2021/10/20 07:44:10;;;;;;;7.13;4.88;;;11.90;99.90;;;;;;5054792;28;20071;-64
2021/10/20 07:46:36;;;;;;;8.52;4.88;;;12.10;99.90;;;;;;5051851;28;20041;-64
2021/10/20 07:49:02;;;;;;;8.73;5.25;;;12.20;99.90;;;;;;5052618;28;20379;-64
2021/10/20 07:51:27;;;;;;;10.90;5.45;;;12.30;99.90;;;;;;5051612;28;20040;-65
2021/10/20 07:53:53;;;;;;;8.55;5.38;;;12.50;99.90;;;;;;5051863;28;20056;-65
2021/10/20 07:56:19;;;;;;;8.45;5.28;;;12.60;99.90;;;;;;5051517;28;20033;-65
2021/10/20 07:58:44;;;;;;;7.60;4.68;;;12.70;99.90;;;;;;5052446;28;20074;-65
2021/10/20 08:01:11;;;;;;;11.93;5.15;;;12.80;99.90;;;;;;5052380;28;20160;-65
2021/10/20 08:03:37;;;;;;;7.63;5.15;;;13.00;99.90;;;;;;5051543;28;20075;-65
2021/10/20 08:06:03;;;;;;;7.72;4.47;;;13.20;99.90;;;;;;5052363;28;20458;-65
2021/10/20 08:08:29;;;;;;;6.32;4.40;;;13.40;99.90;;;;;;5051075;28;20033;-65
2021/10/20 08:10:55;;;;;;;4.93;3.30;;;13.60;99.90;;;;;;5064342;28;20492;-65
2021/10/20 08:13:20;;;;;;;4.07;2.45;;;13.80;99.90;;;;;;5063054;28;20036;-65
2021/10/20 08:15:48;;;;;;;3.65;2.42;;;14.20;99.90;;;;;;5052450;28;20040;-65
2021/10/20 08:18:13;;;;;;;4.55;2.50;;;14.60;99.50;;;;;;5051928;28;20060;-65
2021/10/20 08:20:39;;;;;;;3.22;2.40;;;15.10;97.80;;;;;;5052069;28;20067;-65
2021/10/20 08:23:08;;;;;;;4.25;2.53;;;;;;;;;;5050999;28;20526;-65
2021/10/20 08:25:37;;;;;;;3.97;2.40;;;16.50;99.90;;;;;;5051422;28;20162;-65
2021/10/20 08:28:05;;;;;;;5.03;2.90;;;;;;;;;;5052148;28;20029;-65
2021/10/20 08:30:32;;;;;;;3.20;2.28;;;16.80;89.80;;;;;;5051171;28;20017;-68
2021/10/20 08:32:58;;;;;;;3.78;2.53;;;17.00;87.90;;;;;;5052030;28;20028;-68
2021/10/20 08:35:24;;;;;;;4.68;2.88;;;17.30;86.50;;;;;;5051021;28;20029;-69
2021/10/20 08:37:56;;;;;;;3.40;2.50;;;17.50;86.10;;;;;;5051757;28;20034;-69
2021/10/20 08:40:31;;;;;;;6.72;2.88;;;17.70;82.70;;;;;;5059949;28;20029;-69
2021/10/20 08:42:58;;;;;;;4.32;2.30;;;17.90;81.00;;;;;;5071300;28;20072;-69
2021/10/20 08:45:24;;;;;;;4.85;2.20;;;18.00;80.00;;;;;;5056582;28;20032;-69
2021/10/20 08:47:50;;;;;;;6.75;2.20;;;18.00;79.30;;;;;;5050745;28;20029;-68
2021/10/20 08:50:25;;;;;;;5.03;2.42;;;18.10;78.90;;;;;;5051050;28;20037;-67
2021/10/20 08:52:52;;;;;;;4.35;2.50;;;18.20;77.90;;;;;;5051102;28;20029;-68
2021/10/20 08:55:20;;;;;;;6.97;2.33;;;18.40;77.60;;;;;;5035732;28;20055;-67
2021/10/20 08:57:48;;;;;;;4.07;2.53;;;18.50;76.90;;;;;;5051503;28;20040;-69
2021/10/20 09:00:15;;;;;;;3.35;2.22;;;18.60;76.80;;;;;;5051190;28;20033;-68
2021/10/20 09:02:41;;;;;;;2.58;2.22;;;18.70;76.90;;;;;;5051253;28;20116;-68
2021/10/20 09:05:09;;;;;;;3.17;2.08;;;18.70;76.30;;;;;;5051204;28;20033;-69
2021/10/20 09:07:37;;;;;;;3.58;2.30;;;18.70;75.90;;;;;;5050345;28;20060;-68
2021/10/20 09:10:05;;;;;;;3.95;2.13;;;18.70;75.40;;;;;;5056788;28;20413;-69
2021/10/20 09:12:37;;;;;;;3.25;1.90;;;18.80;75.80;;;;;;5057105;28;20035;-69
2021/10/20 09:15:19;;;;;;;4.65;2.33;;;18.90;75.30;;;;;;5051565;28;20059;-68
2021/10/20 09:17:57;;;;;;;5.50;2.00;;;19.00;75.10;;;;;;5051734;28;20360;-69
2021/10/20 09:20:29;;;;;;;4.22;2.47;;;19.10;74.50;;;;;;5050458;28;20033;-68
2021/10/20 09:23:00;;;;;;;2.10;1.90;;;19.20;74.30;;;;;;5051302;28;20082;-69
2021/10/20 09:25:38;;;;;;;7.35;2.63;;;19.20;73.90;;;;;;5050638;28;20021;-68
2021/10/20 09:28:10;;;;;;;3.30;2.13;;;19.20;73.90;;;;;;5053920;28;20029;-68
2021/10/20 09:30:38;;;;;;;3.28;2.08;;;19.30;74.20;;;;;;5058329;28;20053;-69
2021/10/20 09:33:07;;;;;;;3.90;2.05;;;19.30;74.00;;;;;;5051633;28;20063;-69
2021/10/20 09:35:34;;;;;;;5.38;2.47;;;19.30;74.60;;;;;;5054313;28;20025;-68
2021/10/20 09:38:01;;;;;;;3.58;2.33;;;19.20;75.00;;;;;;5055133;28;20033;-68
2021/10/20 09:40:33;;;;;;;3.75;2.47;;;19.20;75.20;;;;;;5063650;28;20033;-69
2021/10/20 09:42:59;;;;;;;3.88;2.17;;;19.30;75.20;;;;;;5075046;28;20127;-68
2021/10/20 09:45:25;;;;;;;3.70;2.10;;;19.40;75.40;;;;;;5074304;28;20119;-69
2021/10/20 09:47:52;;;;;;;2.70;1.98;;;19.40;75.60;;;;;;5058508;28;20052;-68
2021/10/20 09:50:18;;;;;;;3.00;2.10;;;19.60;74.90;;;;;;5053745;28;20029;-67
2021/10/20 09:52:52;;;;;;;5.53;2.13;;;19.70;74.60;;;;;;5051877;28;20025;-69
2021/10/20 09:55:29;;;;;;;6.63;2.00;;;19.90;73.10;;;;;;5054264;28;20029;-67
2021/10/20 09:58:00;;;;;;;3.15;1.90;;;19.90;73.60;;;;;;5054969;28;20032;-68
2021/10/20 10:00:27;;;;;;;3.20;2.10;;;20.00;73.10;;;;;;5053911;28;20072;-68
2021/10/20 10:02:53;;;;;;;3.30;2.25;;;20.30;72.60;;;;;;5054503;28;20550;-68
2021/10/20 10:05:19;;;;;;;9.32;2.13;;;20.50;71.30;;;;;;5054089;28;20078;-67
2021/10/20 10:07:45;;;;;;;4.25;2.10;;;20.70;70.70;;;;;;5053894;28;20444;-68
2021/10/20 10:10:11;;;;;;;5.47;2.17;;;20.70;70.40;;;;;;5060980;28;20024;-68
2021/10/20 10:12:39;;;;;;;2.10;1.67;;;20.70;70.30;;;;;;5059752;28;20067;-68
2021/10/20 10:15:09;;;;;;;3.90;2.30;;;20.90;69.90;;;;;;5054624;28;20029;-69
2021/10/20 10:17:38;;;;;;;2.55;2.25;;;20.90;70.20;;;;;;5053112;28;20070;-68
2021/10/20 10:20:09;;;;;;;3.58;2.00;;;21.00;69.80;;;;;;5054100;28;20033;-68
2021/10/20 10:22:55;;;;;;;4.43;2.20;;;21.10;69.30;;;;;;5037131;28;20029;-67
2021/10/20 10:25:39;;;;;;;4.63;2.22;;;21.10;69.00;;;;;;5053648;28;20076;-67
2021/10/20 10:28:17;;;;;;;4.60;2.30;;;21.10;69.40;;;;;;5054023;28;20462;-69
2021/10/20 10:30:55;;;;;;;4.60;2.15;;;21.20;68.50;;;;;;5053504;28;20029;-68
2021/10/20 10:33:23;;;;;;;3.15;2.17;;;21.30;68.50;;;;;;5053767;28;20025;-67
2021/10/20 10:36:13;;;;;;;4.22;2.17;;;21.30;68.60;;;;;;5053674;28;20033;-69
2021/10/20 10:38:48;;;;;;;9.18;2.00;;;21.30;68.90;;;;;;5053158;28;20032;-70
2021/10/20 10:41:30;;;;;;;4.05;2.30;;;21.30;69.10;;;;;;5065076;28;20398;-69
2021/10/20 10:44:05;;;;;;;3.33;2.40;;;21.40;68.20;;;;;;5053752;28;20045;-68
2021/10/20 10:46:35;;;;;;;6.47;2.13;;;21.50;68.30;;;;;;5037445;28;20067;-68
2021/10/20 10:49:28;;;;;;;2.90;1.83;;;21.50;68.00;;;;;;5053818;28;20021;-69
2021/10/20 10:52:33;;;;;;;2.75;2.17;;;21.50;67.90;;;;;;5053325;28;20025;-69
2021/10/20 10:55:10;;;;;;;2.63;1.98;;;21.60;68.10;;;;;;5053870;28;20036;-68
2021/10/20 10:57:55;;;;;;;4.05;2.15;;;21.60;68.50;;;;;;5052752;28;20565;-69
2021/10/20 11:00:21;;;;;;;3.38;2.25;;;21.60;68.10;;;;;;5053263;28;20036;-67
2021/10/20 11:03:06;;;;;;;3.78;2.10;;;21.80;67.50;;;;;;5053358;28;20029;-69
2021/10/20 11:05:32;;;;;;;4.05;2.70;;;22.00;67.00;;;;;;5052683;28;20154;-69
2021/10/20 11:08:12;;;;;;;4.97;2.55;;;22.00;66.70;;;;;;5053859;28;20025;-69
2021/10/20 11:10:40;;;;;;;7.32;2.55;;;22.00;66.70;;;;;;5063146;28;20526;-69
2021/10/20 11:13:06;;;;;;;6.50;2.28;;;21.90;67.00;;;;;;5054417;28;20470;-68
2021/10/20 11:15:34;;;;;;;2.13;1.73;;;21.90;67.20;;;;;;5052501;28;20033;-67
2021/10/20 11:18:00;;;;;;;2.88;2.00;;;21.80;67.10;;;;;;5053558;28;20037;-68
2021/10/20 11:20:29;;;;;;;4.93;1.90;;;21.60;67.40;;;;;;5052354;28;20029;-68
2021/10/20 11:23:00;;;;;;;5.40;1.88;;;21.60;68.10;;;;;;5053626;28;20032;-69
2021/10/20 11:25:26;;;;;;;4.35;2.22;;;21.60;68.20;;;;;;5052248;28;20021;-68
2021/10/20 11:27:53;;;;;;;4.30;2.03;;;21.70;68.30;;;;;;5053198;28;20029;-69
2021/10/20 11:30:31;;;;;;;4.43;2.20;;;21.80;67.90;;;;;;5053003;28;20033;-68
2021/10/20 11:32:57;;;;;;;3.67;1.88;;;21.90;67.70;;;;;;5053216;28;20020;-68
2021/10/20 11:35:25;;;;;;;3.53;1.60;;;22.10;67.20;;;;;;5052391;28;20116;-66
2021/10/20 11:37:55;;;;;;;3.15;1.50;;;22.20;66.70;;;;;;5052699;28;20033;-68
2021/10/20 11:40:21;;;;;;;2.35;2.15;;;22.30;66.90;;;;;;5060930;28;20397;-69
2021/10/20 11:42:47;;;;;;;5.20;1.60;;;22.50;66.50;;;;;;5072029;28;20048;-75
2021/10/20 11:45:12;;;;;;;2.22;1.80;;;22.50;66.20;;;;;;5071060;28;20105;-75
2021/10/20 11:47:39;;;;;;;1.90;1.55;;;22.50;66.70;;;;;;5051449;28;20035;-74
2021/10/20 11:50:10;;;;;;;3.75;1.77;;;22.50;66.90;;;;;;5052279;28;20031;-74
2021/10/20 11:52:35;;;;;;;3.50;1.85;;;22.60;66.50;;;;;;5049877;28;20032;-82
2021/10/20 11:55:03;;;;;;;2.20;1.80;;;22.80;66.20;;;;;;5052493;28;20432;-78
2021/10/20 11:57:28;;;;;;;3.50;2.08;;;23.00;65.50;;;;;;5035134;28;20025;-75
2021/10/20 11:59:56;;;;;;;3.95;2.05;;;23.30;65.40;;;;;;5052213;28;20029;-69
2021/10/20 12:02:28;;;;;;;3.25;1.58;;;23.80;63.40;;;;;;5051930;28;20029;-68
2021/10/20 12:04:56;;;;;;;1.77;1.63;;;24.00;63.60;;;;;;5052638;28;20037;-76
2021/10/20 12:07:31;;;;;;;2.78;1.58;;;24.60;61.70;;;;;;5052187;28;20036;-67
2021/10/20 12:10:03;;;;;;;2.40;2.00;;;24.60;62.10;;;;;;5057193;28;20424;-69
2021/10/20 12:12:29;;;;;;;2.72;1.80;;;24.80;61.60;;;;;;5056827;28;20434;-68
2021/10/20 12:14:57;;;;;;;1.83;1.60;;;25.00;60.70;;;;;;5052618;28;20064;-69
2021/10/20 12:17:26;;;;;;;1.83;1.63;;;25.00;60.50;;;;;;5051758;28;20036;-67
2021/10/20 12:20:01;;;;;;;3.22;1.77;;;25.10;60.80;;;;;;5051811;28;20040;-69
2021/10/20 12:22:28;;;;;;;3.65;1.88;;;25.30;60.10;;;;;;5048564;28;20150;-68
2021/10/20 12:24:58;;;;;;;1.88;1.75;;;25.40;60.00;;;;;;5051791;28;20029;-69
2021/10/20 12:27:24;;;;;;;2.10;1.42;;;25.60;58.80;;;;;;5051192;28;20029;-68
2021/10/20 12:29:53;;;;;;;2.88;2.05;;;25.60;59.40;;;;;;5051964;28;20061;-69
2021/10/20 12:32:36;;;;;;;3.20;1.67;;;25.80;59.10;;;;;;5051722;28;20033;-69
2021/10/20 12:35:12;;;;;;;8.30;1.98;;;25.90;59.20;;;;;;5052032;28;20398;-69
2021/10/20 12:37:43;;;;;;;1.75;1.55;;;25.90;58.60;;;;;;5050948;28;20025;-69
2021/10/20 12:40:22;;;;;;;3.78;1.90;;;25.80;58.90;;;;;;5058830;28;20390;-69
2021/10/20 12:42:52;;;;;;;3.90;1.85;;;25.70;58.80;;;;;;5053410;28;20045;-69
2021/10/20 12:45:22;;;;;;;2.10;1.40;;;25.30;59.70;;;;;;5051683;28;20036;-69
2021/10/20 12:47:53;;;;;;;4.25;1.90;;;25.00;60.40;;;;;;5050783;28;20033;-70
2021/10/20 12:50:22;;;;;;;3.70;1.83;;;24.70;61.00;;;;;;5051881;28;20038;-69
2021/10/20 12:52:47;;;;;;;5.95;1.77;;;24.40;61.60;;;;;;5050301;28;20040;-69
2021/10/20 12:55:16;;;;;;;3.90;2.03;;;24.10;62.20;;;;;;5051343;28;20485;-69